sensor_id;sensor_type;location;lat;lon;timestamp;P1;durP1;ratioP1;P2;durP2;ratioP2
64295;SDS011;51082;38.236;15.432;2023-07-16T00:00:55;2.85;;;2.50;;
64295;SDS011;51082;38.236;15.432;2023-07-16T00:01:56;4.00;;;2.38;;
64295;SDS011;51082;38.236;15.432;2023-07-16T00:02:59;3.53;;;2.38;;
64295;SDS011;51082;38.236;15.432;2023-07-16T00:04:00;2.88;;;2.28;;
64295;SDS011;51082;38.236;15.432;2023-07-16T00:05:03;3.03;;;2.45;;
64295;SDS011;51082;38.236;15.432;2023-07-16T00:06:06;2.53;;;2.10;;
64295;SDS011;51082;38.236;15.432;2023-07-16T00:07:09;4.50;;;2.35;;
64295;SDS011;51082;38.236;15.432;2023-07-16T00:08:11;3.35;;;2.47;;
64295;SDS011;51082;38.236;15.432;2023-07-16T00:09:14;4.60;;;2.50;;
64295;SDS011;51082;38.236;15.432;2023-07-16T00:10:15;2.90;;;2.42;;
64295;SDS011;51082;38.236;15.432;2023-07-16T00:11:18;2.40;;;2.20;;
64295;SDS011;51082;38.236;15.432;2023-07-16T00:12:22;3.00;;;2.53;;
64295;SDS011;51082;38.236;15.432;2023-07-16T00:13:24;3.35;;;2.33;;
64295;SDS011;51082;38.236;15.432;2023-07-16T00:14:26;3.85;;;2.55;;
64295;SDS011;51082;38.236;15.432;2023-07-16T00:15:29;3.55;;;2.38;;
64295;SDS011;51082;38.236;15.432;2023-07-16T00:16:31;4.43;;;2.60;;
64295;SDS011;51082;38.236;15.432;2023-07-16T00:17:34;3.42;;;2.25;;
64295;SDS011;51082;38.236;15.432;2023-07-16T00:18:36;3.13;;;2.13;;
64295;SDS011;51082;38.236;15.432;2023-07-16T00:19:38;3.15;;;2.33;;
64295;SDS011;51082;38.236;15.432;2023-07-16T00:20:40;2.80;;;2.15;;
64295;SDS011;51082;38.236;15.432;2023-07-16T00:21:43;3.28;;;2.20;;
64295;SDS011;51082;38.236;15.432;2023-07-16T00:22:44;2.88;;;2.40;;
64295;SDS011;51082;38.236;15.432;2023-07-16T00:23:46;3.53;;;2.60;;
64295;SDS011;51082;38.236;15.432;2023-07-16T00:24:49;3.53;;;2.20;;
64295;SDS011;51082;38.236;15.432;2023-07-16T00:25:50;1.80;;;1.67;;
64295;SDS011;51082;38.236;15.432;2023-07-16T00:26:53;3.22;;;1.90;;
64295;SDS011;51082;38.236;15.432;2023-07-16T00:27:56;4.22;;;2.50;;
64295;SDS011;51082;38.236;15.432;2023-07-16T00:28:59;3.42;;;2.33;;
64295;SDS011;51082;38.236;15.432;2023-07-16T00:30:01;5.78;;;2.00;;
64295;SDS011;51082;38.236;15.432;2023-07-16T00:31:04;2.75;;;1.92;;
64295;SDS011;51082;38.236;15.432;2023-07-16T00:32:05;2.08;;;1.80;;
64295;SDS011;51082;38.236;15.432;2023-07-16T00:33:08;4.38;;;2.17;;
64295;SDS011;51082;38.236;15.432;2023-07-16T00:34:10;2.10;;;1.70;;
64295;SDS011;51082;38.236;15.432;2023-07-16T00:35:13;3.92;;;2.60;;
64295;SDS011;51082;38.236;15.432;2023-07-16T00:36:15;2.97;;;2.10;;
64295;SDS011;51082;38.236;15.432;2023-07-16T00:37:18;4.47;;;2.15;;
64295;SDS011;51082;38.236;15.432;2023-07-16T00:38:19;2.78;;;2.03;;
64295;SDS011;51082;38.236;15.432;2023-07-16T00:39:22;2.22;;;2.00;;
64295;SDS011;51082;38.236;15.432;2023-07-16T00:40:23;3.92;;;2.45;;
64295;SDS011;51082;38.236;15.432;2023-07-16T00:41:26;2.33;;;2.10;;
64295;SDS011;51082;38.236;15.432;2023-07-16T00:42:28;2.80;;;2.22;;
64295;SDS011;51082;38.236;15.432;2023-07-16T00:43:32;3.97;;;2.50;;
64295;SDS011;51082;38.236;15.432;2023-07-16T00:44:34;2.70;;;2.10;;
64295;SDS011;51082;38.236;15.432;2023-07-16T00:45:36;2.50;;;2.10;;
64295;SDS011;51082;38.236;15.432;2023-07-16T00:46:39;3.05;;;2.38;;
64295;SDS011;51082;38.236;15.432;2023-07-16T00:47:44;3.13;;;2.25;;
64295;SDS011;51082;38.236;15.432;2023-07-16T00:48:46;2.53;;;2.25;;
64295;SDS011;51082;38.236;15.432;2023-07-16T00:49:49;3.47;;;2.45;;
64295;SDS011;51082;38.236;15.432;2023-07-16T00:50:51;6.10;;;2.35;;
64295;SDS011;51082;38.236;15.432;2023-07-16T00:51:55;8.75;;;2.58;;
64295;SDS011;51082;38.236;15.432;2023-07-16T00:52:59;2.45;;;1.73;;
64295;SDS011;51082;38.236;15.432;2023-07-16T00:54:01;6.13;;;2.65;;
64295;SDS011;51082;38.236;15.432;2023-07-16T00:55:04;2.67;;;2.05;;
64295;SDS011;51082;38.236;15.432;2023-07-16T00:56:08;2.22;;;2.05;;
64295;SDS011;51082;38.236;15.432;2023-07-16T00:57:10;3.28;;;2.97;;
64295;SDS011;51082;38.236;15.432;2023-07-16T00:58:12;3.00;;;2.15;;
64295;SDS011;51082;38.236;15.432;2023-07-16T00:59:16;2.97;;;2.00;;
64295;SDS011;51082;38.236;15.432;2023-07-16T01:00:19;3.83;;;1.60;;
64295;SDS011;51082;38.236;15.432;2023-07-16T01:01:21;3.70;;;2.42;;
64295;SDS011;51082;38.236;15.432;2023-07-16T01:02:23;11.77;;;2.53;;
64295;SDS011;51082;38.236;15.432;2023-07-16T01:03:25;3.90;;;2.58;;
64295;SDS011;51082;38.236;15.432;2023-07-16T01:04:29;3.33;;;2.25;;
64295;SDS011;51082;38.236;15.432;2023-07-16T01:05:31;7.40;;;2.13;;
64295;SDS011;51082;38.236;15.432;2023-07-16T01:06:39;3.03;;;2.10;;
64295;SDS011;51082;38.236;15.432;2023-07-16T01:07:47;4.18;;;1.95;;
64295;SDS011;51082;38.236;15.432;2023-07-16T01:08:58;3.88;;;2.75;;
64295;SDS011;51082;38.236;15.432;2023-07-16T01:10:04;12.80;;;2.70;;
64295;SDS011;51082;38.236;15.432;2023-07-16T01:11:08;3.13;;;2.33;;
64295;SDS011;51082;38.236;15.432;2023-07-16T01:12:11;5.78;;;2.38;;
64295;SDS011;51082;38.236;15.432;2023-07-16T01:13:14;3.13;;;2.50;;
64295;SDS011;51082;38.236;15.432;2023-07-16T01:14:18;4.03;;;2.10;;
64295;SDS011;51082;38.236;15.432;2023-07-16T01:15:21;4.40;;;2.58;;
64295;SDS011;51082;38.236;15.432;2023-07-16T01:16:24;10.68;;;1.75;;
64295;SDS011;51082;38.236;15.432;2023-07-16T01:17:27;6.25;;;2.90;;
64295;SDS011;51082;38.236;15.432;2023-07-16T01:18:29;2.55;;;2.35;;
64295;SDS011;51082;38.236;15.432;2023-07-16T01:19:31;3.03;;;2.25;;
64295;SDS011;51082;38.236;15.432;2023-07-16T01:20:33;2.70;;;2.03;;
64295;SDS011;51082;38.236;15.432;2023-07-16T01:21:38;2.60;;;2.10;;
64295;SDS011;51082;38.236;15.432;2023-07-16T01:22:54;3.08;;;1.80;;
64295;SDS011;51082;38.236;15.432;2023-07-16T01:25:58;1.98;;;1.75;;
64295;SDS011;51082;38.236;15.432;2023-07-16T01:27:14;2.13;;;1.90;;
64295;SDS011;51082;38.236;15.432;2023-07-16T01:28:35;3.00;;;2.13;;
64295;SDS011;51082;38.236;15.432;2023-07-16T01:29:53;2.30;;;1.50;;
64295;SDS011;51082;38.236;15.432;2023-07-16T01:30:59;7.68;;;2.47;;
64295;SDS011;51082;38.236;15.432;2023-07-16T01:32:03;3.88;;;2.42;;
64295;SDS011;51082;38.236;15.432;2023-07-16T01:33:06;3.13;;;2.63;;
64295;SDS011;51082;38.236;15.432;2023-07-16T01:34:11;2.95;;;1.90;;
64295;SDS011;51082;38.236;15.432;2023-07-16T01:35:15;5.13;;;2.05;;
64295;SDS011;51082;38.236;15.432;2023-07-16T01:36:18;2.92;;;2.40;;
64295;SDS011;51082;38.236;15.432;2023-07-16T01:37:21;4.30;;;2.05;;
64295;SDS011;51082;38.236;15.432;2023-07-16T01:38:24;3.33;;;2.22;;
64295;SDS011;51082;38.236;15.432;2023-07-16T01:39:26;3.05;;;2.30;;
64295;SDS011;51082;38.236;15.432;2023-07-16T01:40:29;3.78;;;2.03;;
64295;SDS011;51082;38.236;15.432;2023-07-16T01:41:31;2.95;;;2.28;;
64295;SDS011;51082;38.236;15.432;2023-07-16T01:42:34;2.10;;;1.90;;
64295;SDS011;51082;38.236;15.432;2023-07-16T01:43:35;4.40;;;2.22;;
64295;SDS011;51082;38.236;15.432;2023-07-16T01:44:38;3.55;;;2.50;;
64295;SDS011;51082;38.236;15.432;2023-07-16T01:45:41;2.88;;;2.47;;
64295;SDS011;51082;38.236;15.432;2023-07-16T01:46:46;1.98;;;1.73;;
64295;SDS011;51082;38.236;15.432;2023-07-16T01:47:59;2.05;;;1.88;;
64295;SDS011;51082;38.236;15.432;2023-07-16T01:49:07;2.58;;;1.90;;
64295;SDS011;51082;38.236;15.432;2023-07-16T01:50:09;6.32;;;2.63;;
64295;SDS011;51082;38.236;15.432;2023-07-16T01:51:12;2.35;;;2.15;;
64295;SDS011;51082;38.236;15.432;2023-07-16T01:52:15;2.60;;;2.13;;
64295;SDS011;51082;38.236;15.432;2023-07-16T01:53:17;4.95;;;2.38;;
64295;SDS011;51082;38.236;15.432;2023-07-16T01:54:19;1.90;;;1.70;;
64295;SDS011;51082;38.236;15.432;2023-07-16T01:55:22;5.68;;;2.58;;
64295;SDS011;51082;38.236;15.432;2023-07-16T01:56:24;2.65;;;2.25;;
64295;SDS011;51082;38.236;15.432;2023-07-16T01:57:27;3.03;;;2.20;;
64295;SDS011;51082;38.236;15.432;2023-07-16T01:58:28;4.80;;;2.33;;
64295;SDS011;51082;38.236;15.432;2023-07-16T01:59:31;3.85;;;2.10;;
64295;SDS011;51082;38.236;15.432;2023-07-16T02:00:32;1.75;;;1.60;;
64295;SDS011;51082;38.236;15.432;2023-07-16T02:01:35;3.22;;;2.15;;
64295;SDS011;51082;38.236;15.432;2023-07-16T02:02:39;2.97;;;2.20;;
64295;SDS011;51082;38.236;15.432;2023-07-16T02:03:40;1.92;;;1.75;;
64295;SDS011;51082;38.236;15.432;2023-07-16T02:04:43;2.45;;;1.75;;
64295;SDS011;51082;38.236;15.432;2023-07-16T02:05:45;2.65;;;2.20;;
64295;SDS011;51082;38.236;15.432;2023-07-16T02:06:47;2.70;;;1.98;;
64295;SDS011;51082;38.236;15.432;2023-07-16T02:07:49;2.83;;;2.05;;
64295;SDS011;51082;38.236;15.432;2023-07-16T02:08:52;2.70;;;2.50;;
64295;SDS011;51082;38.236;15.432;2023-07-16T02:09:53;1.95;;;1.75;;
64295;SDS011;51082;38.236;15.432;2023-07-16T02:10:55;5.38;;;2.30;;
64295;SDS011;51082;38.236;15.432;2023-07-16T02:11:58;6.05;;;3.05;;
64295;SDS011;51082;38.236;15.432;2023-07-16T02:12:59;5.00;;;1.77;;
64295;SDS011;51082;38.236;15.432;2023-07-16T02:14:02;7.93;;;2.45;;
64295;SDS011;51082;38.236;15.432;2023-07-16T02:15:04;9.80;;;2.30;;
64295;SDS011;51082;38.236;15.432;2023-07-16T02:16:07;2.40;;;2.17;;
64295;SDS011;51082;38.236;15.432;2023-07-16T02:17:10;2.13;;;1.90;;
64295;SDS011;51082;38.236;15.432;2023-07-16T02:18:13;3.72;;;2.45;;
64295;SDS011;51082;38.236;15.432;2023-07-16T02:19:15;2.85;;;1.90;;
64295;SDS011;51082;38.236;15.432;2023-07-16T02:20:17;5.93;;;2.03;;
64295;SDS011;51082;38.236;15.432;2023-07-16T02:21:19;3.30;;;2.15;;
64295;SDS011;51082;38.236;15.432;2023-07-16T02:22:22;2.30;;;2.10;;
64295;SDS011;51082;38.236;15.432;2023-07-16T02:23:23;3.17;;;1.75;;
64295;SDS011;51082;38.236;15.432;2023-07-16T02:24:27;4.25;;;2.05;;
64295;SDS011;51082;38.236;15.432;2023-07-16T02:25:28;1.95;;;1.77;;
64295;SDS011;51082;38.236;15.432;2023-07-16T02:26:31;2.58;;;2.20;;
64295;SDS011;51082;38.236;15.432;2023-07-16T02:27:33;2.80;;;1.67;;
64295;SDS011;51082;38.236;15.432;2023-07-16T02:28:35;10.45;;;2.58;;
64295;SDS011;51082;38.236;15.432;2023-07-16T02:29:37;2.38;;;1.98;;
64295;SDS011;51082;38.236;15.432;2023-07-16T02:30:40;4.13;;;1.65;;
64295;SDS011;51082;38.236;15.432;2023-07-16T02:31:42;2.08;;;1.85;;
64295;SDS011;51082;38.236;15.432;2023-07-16T02:32:48;1.77;;;1.67;;
64295;SDS011;51082;38.236;15.432;2023-07-16T02:33:49;8.77;;;2.50;;
64295;SDS011;51082;38.236;15.432;2023-07-16T02:34:52;3.63;;;2.15;;
64295;SDS011;51082;38.236;15.432;2023-07-16T02:35:54;2.78;;;2.03;;
64295;SDS011;51082;38.236;15.432;2023-07-16T02:36:56;4.72;;;2.00;;
64295;SDS011;51082;38.236;15.432;2023-07-16T02:37:58;3.20;;;2.55;;
64295;SDS011;51082;38.236;15.432;2023-07-16T02:39:01;4.75;;;2.60;;
64295;SDS011;51082;38.236;15.432;2023-07-16T02:40:02;9.05;;;2.05;;
64295;SDS011;51082;38.236;15.432;2023-07-16T02:41:05;1.70;;;1.60;;
64295;SDS011;51082;38.236;15.432;2023-07-16T02:42:08;3.50;;;2.28;;
64295;SDS011;51082;38.236;15.432;2023-07-16T02:43:09;4.90;;;2.28;;
64295;SDS011;51082;38.236;15.432;2023-07-16T02:44:12;1.70;;;1.60;;
64295;SDS011;51082;38.236;15.432;2023-07-16T02:45:14;5.65;;;2.47;;
64295;SDS011;51082;38.236;15.432;2023-07-16T02:46:17;2.63;;;1.90;;
64295;SDS011;51082;38.236;15.432;2023-07-16T02:47:18;2.15;;;1.75;;
64295;SDS011;51082;38.236;15.432;2023-07-16T02:48:22;3.25;;;2.08;;
64295;SDS011;51082;38.236;15.432;2023-07-16T02:49:24;2.50;;;1.73;;
64295;SDS011;51082;38.236;15.432;2023-07-16T02:50:27;3.17;;;1.90;;
64295;SDS011;51082;38.236;15.432;2023-07-16T02:51:28;5.03;;;2.28;;
64295;SDS011;51082;38.236;15.432;2023-07-16T02:52:31;3.92;;;2.50;;
64295;SDS011;51082;38.236;15.432;2023-07-16T02:53:32;3.55;;;1.90;;
64295;SDS011;51082;38.236;15.432;2023-07-16T02:54:35;2.55;;;1.98;;
64295;SDS011;51082;38.236;15.432;2023-07-16T02:55:37;3.63;;;2.33;;
64295;SDS011;51082;38.236;15.432;2023-07-16T02:56:40;3.35;;;2.15;;
64295;SDS011;51082;38.236;15.432;2023-07-16T02:57:41;3.42;;;2.40;;
64295;SDS011;51082;38.236;15.432;2023-07-16T02:58:44;3.33;;;2.15;;
64295;SDS011;51082;38.236;15.432;2023-07-16T02:59:46;1.98;;;1.77;;
64295;SDS011;51082;38.236;15.432;2023-07-16T03:00:49;2.03;;;1.90;;
64295;SDS011;51082;38.236;15.432;2023-07-16T03:01:51;5.10;;;2.45;;
64295;SDS011;51082;38.236;15.432;2023-07-16T03:02:54;4.72;;;2.63;;
64295;SDS011;51082;38.236;15.432;2023-07-16T03:03:57;4.07;;;2.35;;
64295;SDS011;51082;38.236;15.432;2023-07-16T03:05:00;4.72;;;2.35;;
64295;SDS011;51082;38.236;15.432;2023-07-16T03:06:02;2.72;;;1.95;;
64295;SDS011;51082;38.236;15.432;2023-07-16T03:07:05;7.28;;;2.20;;
64295;SDS011;51082;38.236;15.432;2023-07-16T03:08:06;4.93;;;2.13;;
64295;SDS011;51082;38.236;15.432;2023-07-16T03:09:09;2.35;;;1.95;;
64295;SDS011;51082;38.236;15.432;2023-07-16T03:10:10;2.00;;;1.42;;
64295;SDS011;51082;38.236;15.432;2023-07-16T03:11:14;2.25;;;1.85;;
64295;SDS011;51082;38.236;15.432;2023-07-16T03:12:15;4.35;;;2.08;;
64295;SDS011;51082;38.236;15.432;2023-07-16T03:13:18;4.35;;;2.63;;
64295;SDS011;51082;38.236;15.432;2023-07-16T03:14:20;4.57;;;2.00;;
64295;SDS011;51082;38.236;15.432;2023-07-16T03:15:22;2.00;;;1.80;;
64295;SDS011;51082;38.236;15.432;2023-07-16T03:16:24;2.65;;;1.95;;
64295;SDS011;51082;38.236;15.432;2023-07-16T03:17:26;5.65;;;1.83;;
64295;SDS011;51082;38.236;15.432;2023-07-16T03:18:29;2.40;;;2.13;;
64295;SDS011;51082;38.236;15.432;2023-07-16T03:19:32;2.75;;;1.95;;
64295;SDS011;51082;38.236;15.432;2023-07-16T03:20:35;3.58;;;2.15;;
64295;SDS011;51082;38.236;15.432;2023-07-16T03:21:37;3.25;;;1.95;;
64295;SDS011;51082;38.236;15.432;2023-07-16T03:22:40;3.22;;;2.00;;
64295;SDS011;51082;38.236;15.432;2023-07-16T03:23:41;3.10;;;2.03;;
64295;SDS011;51082;38.236;15.432;2023-07-16T03:24:44;2.97;;;2.33;;
64295;SDS011;51082;38.236;15.432;2023-07-16T03:25:46;4.93;;;1.92;;
64295;SDS011;51082;38.236;15.432;2023-07-16T03:26:49;2.25;;;1.98;;
64295;SDS011;51082;38.236;15.432;2023-07-16T03:27:50;5.38;;;1.88;;
64295;SDS011;51082;38.236;15.432;2023-07-16T03:28:53;5.63;;;2.25;;
64295;SDS011;51082;38.236;15.432;2023-07-16T03:29:56;2.80;;;2.03;;
64295;SDS011;51082;38.236;15.432;2023-07-16T03:30:58;3.15;;;2.10;;
64295;SDS011;51082;38.236;15.432;2023-07-16T03:32:00;2.85;;;2.05;;
64295;SDS011;51082;38.236;15.432;2023-07-16T03:33:03;2.28;;;1.70;;
64295;SDS011;51082;38.236;15.432;2023-07-16T03:34:05;4.85;;;2.10;;
64295;SDS011;51082;38.236;15.432;2023-07-16T03:35:09;2.17;;;1.60;;
64295;SDS011;51082;38.236;15.432;2023-07-16T03:36:11;1.60;;;1.50;;
64295;SDS011;51082;38.236;15.432;2023-07-16T03:37:14;2.10;;;1.75;;
64295;SDS011;51082;38.236;15.432;2023-07-16T03:38:15;2.38;;;1.63;;
64295;SDS011;51082;38.236;15.432;2023-07-16T03:39:17;2.97;;;2.20;;
64295;SDS011;51082;38.236;15.432;2023-07-16T03:40:23;3.45;;;2.00;;
64295;SDS011;51082;38.236;15.432;2023-07-16T03:41:26;2.60;;;1.85;;
64295;SDS011;51082;38.236;15.432;2023-07-16T03:42:28;2.92;;;1.92;;
64295;SDS011;51082;38.236;15.432;2023-07-16T03:43:30;2.25;;;1.98;;
64295;SDS011;51082;38.236;15.432;2023-07-16T03:44:32;2.30;;;1.83;;
64295;SDS011;51082;38.236;15.432;2023-07-16T03:45:34;2.97;;;2.03;;
64295;SDS011;51082;38.236;15.432;2023-07-16T03:46:37;2.88;;;2.03;;
64295;SDS011;51082;38.236;15.432;2023-07-16T03:47:38;6.00;;;2.17;;
64295;SDS011;51082;38.236;15.432;2023-07-16T03:48:41;2.55;;;1.80;;
64295;SDS011;51082;38.236;15.432;2023-07-16T03:49:43;2.92;;;2.13;;
64295;SDS011;51082;38.236;15.432;2023-07-16T03:50:47;2.33;;;1.75;;
64295;SDS011;51082;38.236;15.432;2023-07-16T03:51:50;3.45;;;1.90;;
64295;SDS011;51082;38.236;15.432;2023-07-16T03:52:52;3.28;;;2.38;;
64295;SDS011;51082;38.236;15.432;2023-07-16T03:53:55;3.22;;;2.20;;
64295;SDS011;51082;38.236;15.432;2023-07-16T03:54:57;3.00;;;2.30;;
64295;SDS011;51082;38.236;15.432;2023-07-16T03:55:59;4.70;;;1.90;;
64295;SDS011;51082;38.236;15.432;2023-07-16T03:57:01;2.90;;;2.00;;
64295;SDS011;51082;38.236;15.432;2023-07-16T03:58:04;2.97;;;2.28;;
64295;SDS011;51082;38.236;15.432;2023-07-16T03:59:06;6.30;;;2.53;;
64295;SDS011;51082;38.236;15.432;2023-07-16T04:00:09;2.33;;;1.70;;
64295;SDS011;51082;38.236;15.432;2023-07-16T04:01:11;3.85;;;2.30;;
64295;SDS011;51082;38.236;15.432;2023-07-16T04:02:13;2.92;;;1.30;;
64295;SDS011;51082;38.236;15.432;2023-07-16T04:03:15;2.10;;;1.80;;
64295;SDS011;51082;38.236;15.432;2023-07-16T04:04:17;3.03;;;1.77;;
64295;SDS011;51082;38.236;15.432;2023-07-16T04:05:19;2.35;;;1.77;;
64295;SDS011;51082;38.236;15.432;2023-07-16T04:06:22;7.28;;;2.50;;
64295;SDS011;51082;38.236;15.432;2023-07-16T04:07:25;5.70;;;2.03;;
64295;SDS011;51082;38.236;15.432;2023-07-16T04:08:27;5.00;;;2.35;;
64295;SDS011;51082;38.236;15.432;2023-07-16T04:09:29;2.35;;;1.98;;
64295;SDS011;51082;38.236;15.432;2023-07-16T04:10:31;3.58;;;2.10;;
64295;SDS011;51082;38.236;15.432;2023-07-16T04:11:33;4.40;;;2.15;;
64295;SDS011;51082;38.236;15.432;2023-07-16T04:12:35;3.97;;;2.50;;
64295;SDS011;51082;38.236;15.432;2023-07-16T04:13:38;4.78;;;2.20;;
64295;SDS011;51082;38.236;15.432;2023-07-16T04:14:39;3.78;;;2.08;;
64295;SDS011;51082;38.236;15.432;2023-07-16T04:15:42;4.40;;;3.05;;
64295;SDS011;51082;38.236;15.432;2023-07-16T04:16:43;6.88;;;2.08;;
64295;SDS011;51082;38.236;15.432;2023-07-16T04:17:46;5.28;;;3.00;;
64295;SDS011;51082;38.236;15.432;2023-07-16T04:18:48;6.05;;;3.05;;
64295;SDS011;51082;38.236;15.432;2023-07-16T04:19:51;5.82;;;3.30;;
64295;SDS011;51082;38.236;15.432;2023-07-16T04:20:52;5.13;;;3.35;;
64295;SDS011;51082;38.236;15.432;2023-07-16T04:21:57;6.68;;;3.50;;
64295;SDS011;51082;38.236;15.432;2023-07-16T04:22:59;8.65;;;3.40;;
64295;SDS011;51082;38.236;15.432;2023-07-16T04:24:02;4.15;;;2.97;;
64295;SDS011;51082;38.236;15.432;2023-07-16T04:25:04;4.53;;;2.47;;
64295;SDS011;51082;38.236;15.432;2023-07-16T04:26:07;7.55;;;3.75;;
64295;SDS011;51082;38.236;15.432;2023-07-16T04:27:08;11.40;;;3.55;;
64295;SDS011;51082;38.236;15.432;2023-07-16T04:28:11;3.88;;;2.22;;
64295;SDS011;51082;38.236;15.432;2023-07-16T04:29:13;6.35;;;3.22;;
64295;SDS011;51082;38.236;15.432;2023-07-16T04:30:16;5.55;;;3.17;;
64295;SDS011;51082;38.236;15.432;2023-07-16T04:31:18;5.53;;;2.92;;
64295;SDS011;51082;38.236;15.432;2023-07-16T04:32:21;4.47;;;2.53;;
64295;SDS011;51082;38.236;15.432;2023-07-16T04:33:23;9.40;;;2.83;;
64295;SDS011;51082;38.236;15.432;2023-07-16T04:34:26;8.50;;;3.63;;
64295;SDS011;51082;38.236;15.432;2023-07-16T04:35:27;10.38;;;3.42;;
64295;SDS011;51082;38.236;15.432;2023-07-16T04:36:30;6.53;;;2.92;;
64295;SDS011;51082;38.236;15.432;2023-07-16T04:37:33;5.43;;;3.08;;
64295;SDS011;51082;38.236;15.432;2023-07-16T04:38:36;5.45;;;3.08;;
64295;SDS011;51082;38.236;15.432;2023-07-16T04:39:38;6.53;;;3.28;;
64295;SDS011;51082;38.236;15.432;2023-07-16T04:40:41;3.63;;;2.95;;
64295;SDS011;51082;38.236;15.432;2023-07-16T04:41:43;6.47;;;3.17;;
64295;SDS011;51082;38.236;15.432;2023-07-16T04:42:46;11.55;;;3.50;;
64295;SDS011;51082;38.236;15.432;2023-07-16T04:43:48;5.63;;;3.25;;
64295;SDS011;51082;38.236;15.432;2023-07-16T04:44:50;6.22;;;3.63;;
64295;SDS011;51082;38.236;15.432;2023-07-16T04:45:52;6.78;;;2.97;;
64295;SDS011;51082;38.236;15.432;2023-07-16T04:46:55;5.85;;;3.17;;
64295;SDS011;51082;38.236;15.432;2023-07-16T04:47:56;6.80;;;2.53;;
64295;SDS011;51082;38.236;15.432;2023-07-16T04:49:01;3.50;;;2.72;;
64295;SDS011;51082;38.236;15.432;2023-07-16T04:50:03;4.43;;;2.55;;
64295;SDS011;51082;38.236;15.432;2023-07-16T04:51:06;3.92;;;2.72;;
64295;SDS011;51082;38.236;15.432;2023-07-16T04:52:08;3.38;;;1.90;;
64295;SDS011;51082;38.236;15.432;2023-07-16T04:53:12;4.05;;;2.55;;
64295;SDS011;51082;38.236;15.432;2023-07-16T04:54:14;6.53;;;2.42;;
64295;SDS011;51082;38.236;15.432;2023-07-16T04:55:16;5.80;;;3.20;;
64295;SDS011;51082;38.236;15.432;2023-07-16T04:56:18;4.68;;;2.90;;
64295;SDS011;51082;38.236;15.432;2023-07-16T04:57:21;5.20;;;2.28;;
64295;SDS011;51082;38.236;15.432;2023-07-16T04:58:22;6.00;;;2.97;;
64295;SDS011;51082;38.236;15.432;2023-07-16T04:59:25;10.70;;;3.30;;
64295;SDS011;51082;38.236;15.432;2023-07-16T05:00:27;4.85;;;2.20;;
64295;SDS011;51082;38.236;15.432;2023-07-16T05:01:29;10.63;;;3.00;;
64295;SDS011;51082;38.236;15.432;2023-07-16T05:02:31;4.57;;;2.90;;
64295;SDS011;51082;38.236;15.432;2023-07-16T05:03:35;5.18;;;3.47;;
64295;SDS011;51082;38.236;15.432;2023-07-16T05:04:36;4.75;;;3.25;;
64295;SDS011;51082;38.236;15.432;2023-07-16T05:05:39;4.60;;;2.90;;
64295;SDS011;51082;38.236;15.432;2023-07-16T05:06:41;5.95;;;2.83;;
64295;SDS011;51082;38.236;15.432;2023-07-16T05:07:43;3.03;;;2.55;;
64295;SDS011;51082;38.236;15.432;2023-07-16T05:08:47;4.60;;;2.00;;
64295;SDS011;51082;38.236;15.432;2023-07-16T05:09:49;4.72;;;2.42;;
64295;SDS011;51082;38.236;15.432;2023-07-16T05:10:51;3.88;;;2.60;;
64295;SDS011;51082;38.236;15.432;2023-07-16T05:11:54;3.45;;;2.35;;
64295;SDS011;51082;38.236;15.432;2023-07-16T05:12:55;4.75;;;2.95;;
64295;SDS011;51082;38.236;15.432;2023-07-16T05:13:58;6.22;;;2.90;;
64295;SDS011;51082;38.236;15.432;2023-07-16T05:14:59;4.93;;;3.17;;
64295;SDS011;51082;38.236;15.432;2023-07-16T05:16:02;4.20;;;2.85;;
64295;SDS011;51082;38.236;15.432;2023-07-16T05:17:04;4.82;;;3.00;;
64295;SDS011;51082;38.236;15.432;2023-07-16T05:18:06;10.50;;;3.03;;
64295;SDS011;51082;38.236;15.432;2023-07-16T05:19:09;5.68;;;2.78;;
64295;SDS011;51082;38.236;15.432;2023-07-16T05:20:11;5.00;;;2.30;;
64295;SDS011;51082;38.236;15.432;2023-07-16T05:21:14;3.03;;;2.50;;
64295;SDS011;51082;38.236;15.432;2023-07-16T05:22:15;2.88;;;2.38;;
64295;SDS011;51082;38.236;15.432;2023-07-16T05:23:18;3.10;;;2.45;;
64295;SDS011;51082;38.236;15.432;2023-07-16T05:24:21;4.85;;;2.97;;
64295;SDS011;51082;38.236;15.432;2023-07-16T05:25:24;3.50;;;2.60;;
64295;SDS011;51082;38.236;15.432;2023-07-16T05:26:26;3.72;;;2.38;;
64295;SDS011;51082;38.236;15.432;2023-07-16T05:27:28;5.90;;;3.22;;
64295;SDS011;51082;38.236;15.432;2023-07-16T05:28:30;5.63;;;2.83;;
64295;SDS011;51082;38.236;15.432;2023-07-16T05:29:33;6.15;;;3.30;;
64295;SDS011;51082;38.236;15.432;2023-07-16T05:30:34;4.20;;;2.20;;
64295;SDS011;51082;38.236;15.432;2023-07-16T05:31:37;4.63;;;3.38;;
64295;SDS011;51082;38.236;15.432;2023-07-16T05:32:40;5.55;;;3.45;;
64295;SDS011;51082;38.236;15.432;2023-07-16T05:33:43;5.30;;;3.38;;
64295;SDS011;51082;38.236;15.432;2023-07-16T05:34:44;10.82;;;3.85;;
64295;SDS011;51082;38.236;15.432;2023-07-16T05:35:48;9.13;;;3.75;;
64295;SDS011;51082;38.236;15.432;2023-07-16T05:36:52;7.30;;;4.15;;
64295;SDS011;51082;38.236;15.432;2023-07-16T05:37:55;4.70;;;3.72;;
64295;SDS011;51082;38.236;15.432;2023-07-16T05:38:57;8.00;;;3.85;;
64295;SDS011;51082;38.236;15.432;2023-07-16T05:40:02;10.07;;;4.28;;
64295;SDS011;51082;38.236;15.432;2023-07-16T05:41:04;14.07;;;4.40;;
64295;SDS011;51082;38.236;15.432;2023-07-16T05:42:07;9.43;;;4.78;;
64295;SDS011;51082;38.236;15.432;2023-07-16T05:43:09;7.13;;;3.70;;
64295;SDS011;51082;38.236;15.432;2023-07-16T05:44:11;6.30;;;3.55;;
64295;SDS011;51082;38.236;15.432;2023-07-16T05:45:13;13.63;;;4.50;;
64295;SDS011;51082;38.236;15.432;2023-07-16T05:46:16;7.40;;;4.20;;
64295;SDS011;51082;38.236;15.432;2023-07-16T05:47:17;8.10;;;4.05;;
64295;SDS011;51082;38.236;15.432;2023-07-16T05:48:20;7.80;;;4.30;;
64295;SDS011;51082;38.236;15.432;2023-07-16T05:49:21;6.95;;;4.07;;
64295;SDS011;51082;38.236;15.432;2023-07-16T05:50:26;9.73;;;5.18;;
64295;SDS011;51082;38.236;15.432;2023-07-16T05:51:28;9.27;;;5.22;;
64295;SDS011;51082;38.236;15.432;2023-07-16T05:52:30;10.23;;;3.83;;
64295;SDS011;51082;38.236;15.432;2023-07-16T05:53:32;7.43;;;4.10;;
64295;SDS011;51082;38.236;15.432;2023-07-16T05:54:35;6.70;;;4.95;;
64295;SDS011;51082;38.236;15.432;2023-07-16T05:55:38;5.90;;;4.05;;
64295;SDS011;51082;38.236;15.432;2023-07-16T05:56:42;7.57;;;4.05;;
64295;SDS011;51082;38.236;15.432;2023-07-16T05:57:44;8.45;;;4.38;;
64295;SDS011;51082;38.236;15.432;2023-07-16T05:58:47;8.15;;;4.25;;
64295;SDS011;51082;38.236;15.432;2023-07-16T05:59:48;13.82;;;3.78;;
64295;SDS011;51082;38.236;15.432;2023-07-16T06:00:51;8.32;;;4.60;;
64295;SDS011;51082;38.236;15.432;2023-07-16T06:01:53;10.43;;;5.10;;
64295;SDS011;51082;38.236;15.432;2023-07-16T06:02:58;5.90;;;4.20;;
64295;SDS011;51082;38.236;15.432;2023-07-16T06:04:00;8.43;;;4.38;;
64295;SDS011;51082;38.236;15.432;2023-07-16T06:05:03;7.10;;;3.95;;
64295;SDS011;51082;38.236;15.432;2023-07-16T06:06:05;6.78;;;3.15;;
64295;SDS011;51082;38.236;15.432;2023-07-16T06:07:11;5.28;;;3.30;;
64295;SDS011;51082;38.236;15.432;2023-07-16T06:08:13;6.95;;;3.55;;
64295;SDS011;51082;38.236;15.432;2023-07-16T06:09:16;6.45;;;2.83;;
64295;SDS011;51082;38.236;15.432;2023-07-16T06:10:18;9.43;;;2.75;;
64295;SDS011;51082;38.236;15.432;2023-07-16T06:11:22;6.03;;;2.88;;
64295;SDS011;51082;38.236;15.432;2023-07-16T06:28:22;1.58;;;1.38;;
64295;SDS011;51082;38.236;15.432;2023-07-16T06:29:25;0.95;;;0.95;;
64295;SDS011;51082;38.236;15.432;2023-07-16T06:30:26;2.25;;;1.55;;